createdAt,value
2022-11-18T00:01:23.591Z,10.00
2022-11-18T00:03:52.464Z,10.10
2022-11-18T00:06:23.243Z,7.40
2022-11-18T00:08:52.499Z,11.10
2022-11-18T00:11:43.810Z,8.60
2022-11-18T00:14:20.489Z,8.80
2022-11-18T00:16:51.495Z,8.30
2022-11-18T00:19:40.072Z,8.60
2022-11-18T00:22:12.028Z,8.30
2022-11-18T00:24:39.835Z,8.80
2022-11-18T00:27:07.593Z,6.90
2022-11-18T00:29:35.389Z,9.20
2022-11-18T00:32:03.389Z,8.10
2022-11-18T00:34:31.385Z,8.30
2022-11-18T00:36:59.518Z,7.30
2022-11-18T00:39:27.444Z,8.30
2022-11-18T00:42:14.054Z,8.90
2022-11-18T00:44:41.902Z,8.50
2022-11-18T00:47:09.731Z,7.80
2022-11-18T00:49:37.547Z,7.80
2022-11-18T00:52:06.494Z,8.90
2022-11-18T00:54:34.277Z,7.80
2022-11-18T00:57:02.024Z,8.00
2022-11-18T00:59:29.816Z,8.60
2022-11-18T01:01:57.960Z,9.20
2022-11-18T01:04:25.874Z,9.10
2022-11-18T01:06:53.770Z,9.80
2022-11-18T01:10:01.034Z,9.50
2022-11-18T01:12:52.933Z,9.00
2022-11-18T01:15:21.844Z,10.80
2022-11-18T01:17:49.701Z,9.30
2022-11-18T01:20:17.675Z,9.80
2022-11-18T01:22:45.409Z,10.10
2022-11-18T01:25:13.381Z,9.30
2022-11-18T01:27:41.208Z,10.40
2022-11-18T01:30:09.448Z,10.60
2022-11-18T01:32:37.373Z,9.60
2022-11-18T01:35:05.604Z,8.50
2022-11-18T01:37:33.384Z,9.60
2022-11-18T01:40:01.213Z,9.60
2022-11-18T01:42:29.070Z,10.40
2022-11-18T01:45:05.298Z,10.50
2022-11-18T01:47:38.008Z,10.10
2022-11-18T01:50:07.195Z,10.40
2022-11-18T01:52:36.721Z,10.20
2022-11-18T01:55:10.559Z,10.10
2022-11-18T01:57:38.782Z,10.30
2022-11-18T02:00:07.810Z,9.90
2022-11-18T02:02:37.689Z,10.00
2022-11-18T02:05:07.548Z,10.40
2022-11-18T02:07:37.939Z,10.10
2022-11-18T02:10:07.048Z,9.00
2022-11-18T02:12:35.482Z,9.60
2022-11-18T02:15:03.821Z,10.40
2022-11-18T02:17:50.579Z,10.60
2022-11-18T02:20:29.535Z,11.20
2022-11-18T02:23:52.907Z,9.40
2022-11-18T02:26:47.042Z,10.60
2022-11-18T02:29:30.091Z,10.00
2022-11-18T02:32:07.210Z,10.30
2022-11-18T02:35:05.394Z,8.90
2022-11-18T02:37:59.827Z,9.50
2022-11-18T02:40:30.430Z,9.80
2022-11-18T02:43:07.507Z,9.90
2022-11-18T02:45:35.906Z,11.00
2022-11-18T02:48:08.148Z,10.60
2022-11-18T02:53:05.922Z,11.00
2022-11-18T02:55:35.855Z,9.70
2022-11-18T02:58:04.794Z,9.80
2022-11-18T03:00:33.229Z,9.40
2022-11-18T03:03:00.887Z,11.00
2022-11-18T03:05:51.623Z,9.00
2022-11-18T03:08:23.595Z,9.90
2022-11-18T03:11:02.390Z,10.60
2022-11-18T03:13:40.069Z,9.90
2022-11-18T03:16:14.885Z,10.00
2022-11-18T03:19:00.355Z,11.00
2022-11-18T03:21:31.626Z,12.00
2022-11-18T03:24:21.539Z,10.20
2022-11-18T03:26:54.524Z,11.00
2022-11-18T03:29:27.159Z,10.80
2022-11-18T03:32:01.098Z,11.80
2022-11-18T03:34:34.206Z,9.80
2022-11-18T03:37:06.394Z,9.10
2022-11-18T03:39:40.958Z,8.40
2022-11-18T03:42:12.770Z,9.10
2022-11-18T03:44:49.567Z,8.30
2022-11-18T03:47:25.343Z,10.20
2022-11-18T03:50:04.389Z,9.90
2022-11-18T03:52:35.111Z,9.00
2022-11-18T03:55:07.270Z,9.50
2022-11-18T03:57:47.171Z,10.50
2022-11-18T04:00:16.836Z,10.10
2022-11-18T04:02:45.617Z,9.90
2022-11-18T04:05:13.746Z,9.50
2022-11-18T04:07:55.988Z,9.00
2022-11-18T04:10:30.450Z,8.40
2022-11-18T04:13:12.726Z,9.70
2022-11-18T04:15:42.003Z,10.30
2022-11-18T04:18:10.615Z,9.90
2022-11-18T04:20:38.461Z,9.80
2022-11-18T04:23:07.023Z,10.60
2022-11-18T04:25:35.698Z,11.00
2022-11-18T04:28:03.901Z,10.70
2022-11-18T04:30:31.873Z,10.20
2022-11-18T04:32:59.635Z,10.70
2022-11-18T04:35:27.712Z,10.40
2022-11-18T04:37:55.578Z,9.70
2022-11-18T04:40:23.456Z,11.00
2022-11-18T04:42:51.291Z,10.80
2022-11-18T04:45:19.099Z,10.40
2022-11-18T04:47:46.968Z,10.00
2022-11-18T04:50:14.725Z,11.40
2022-11-18T04:52:42.583Z,8.80
2022-11-18T04:55:10.480Z,11.60
2022-11-18T04:57:38.210Z,11.00
2022-11-18T05:00:06.694Z,9.20
2022-11-18T05:02:34.669Z,9.70
2022-11-18T05:05:03.202Z,10.80
2022-11-18T05:07:30.970Z,10.20
2022-11-18T05:09:59.354Z,11.80
2022-11-18T05:12:47.059Z,10.50
2022-11-18T05:15:20.224Z,8.80
2022-11-18T05:17:48.327Z,9.50
2022-11-18T05:20:16.647Z,10.20
2022-11-18T05:22:44.457Z,10.50
2022-11-18T05:25:12.209Z,9.90
2022-11-18T05:27:39.964Z,10.20
2022-11-18T05:30:08.445Z,9.30
2022-11-18T05:32:36.285Z,10.30
2022-11-18T05:35:04.416Z,11.70
2022-11-18T05:37:33.462Z,11.20
2022-11-18T05:40:01.352Z,11.80
2022-11-18T05:42:47.899Z,8.80
2022-11-18T05:45:16.179Z,9.80
2022-11-18T05:48:04.186Z,10.60
2022-11-18T05:50:33.660Z,8.90
2022-11-18T05:53:02.346Z,10.50
2022-11-18T05:55:35.826Z,11.00
2022-11-18T05:58:03.572Z,10.70
2022-11-18T06:00:31.758Z,10.90
2022-11-18T06:03:00.038Z,10.80
2022-11-18T06:05:27.897Z,11.30
2022-11-18T06:07:56.494Z,12.70
2022-11-18T06:10:30.787Z,12.80
2022-11-18T06:13:03.568Z,13.10
2022-11-18T06:15:35.700Z,11.60
2022-11-18T06:18:07.061Z,11.40
2022-11-18T06:20:36.778Z,11.90
2022-11-18T06:23:04.861Z,14.10
2022-11-18T06:25:32.739Z,13.50
2022-11-18T06:28:02.392Z,13.80
2022-11-18T06:30:30.151Z,13.40
2022-11-18T06:32:58.093Z,14.20
2022-11-18T06:35:25.929Z,14.30
2022-11-18T06:37:53.794Z,14.50
2022-11-18T06:40:21.562Z,14.60
2022-11-18T06:43:08.052Z,12.70
2022-11-18T06:45:35.796Z,13.80
2022-11-18T06:48:04.209Z,14.20
2022-11-18T06:50:32.035Z,16.20
2022-11-18T06:53:01.383Z,14.20
2022-11-18T06:55:29.174Z,13.20
2022-11-18T06:57:57.200Z,13.10
2022-11-18T07:00:25.076Z,13.10
2022-11-18T07:02:52.839Z,13.30
2022-11-18T07:05:20.662Z,13.50
2022-11-18T07:07:48.437Z,15.50
2022-11-18T07:10:16.532Z,14.20
2022-11-18T07:12:44.380Z,14.60
2022-11-18T07:15:12.314Z,12.40
2022-11-18T07:17:40.303Z,13.90
2022-11-18T07:20:08.524Z,14.40
2022-11-18T07:22:36.379Z,14.50
2022-11-18T07:25:04.454Z,11.30
2022-11-18T07:27:32.211Z,12.90
2022-11-18T07:29:59.987Z,14.00
2022-11-18T07:32:27.868Z,14.80
2022-11-18T07:34:55.574Z,14.00
2022-11-18T07:37:23.374Z,13.70
2022-11-18T07:39:51.176Z,14.10
2022-11-18T07:42:19.467Z,12.70
2022-11-18T07:44:47.306Z,14.50
2022-11-18T07:47:15.162Z,14.90
2022-11-18T07:49:42.860Z,15.00
2022-11-18T07:52:10.696Z,13.70
2022-11-18T07:54:38.538Z,14.50
2022-11-18T07:57:06.374Z,14.40
2022-11-18T07:59:34.170Z,12.90
2022-11-18T08:02:02.205Z,14.70
2022-11-18T08:04:30.566Z,14.10
2022-11-18T08:06:58.368Z,15.20
2022-11-18T08:09:26.271Z,15.10
2022-11-18T08:11:53.998Z,14.30
2022-11-18T08:14:24.216Z,13.40
2022-11-18T08:16:52.014Z,14.80
2022-11-18T08:19:20.174Z,14.70
2022-11-18T08:21:48.273Z,14.90
2022-11-18T08:24:16.064Z,14.10
2022-11-18T08:26:43.858Z,12.70
2022-11-18T08:29:11.606Z,15.30
2022-11-18T08:31:39.545Z,16.00
2022-11-18T08:34:07.841Z,16.40
2022-11-18T08:36:37.867Z,16.00
2022-11-18T08:39:08.127Z,15.00
2022-11-18T08:41:38.293Z,15.40
2022-11-18T08:44:07.066Z,16.90
2022-11-18T08:46:35.134Z,14.60
2022-11-18T08:49:03.560Z,16.20
2022-11-18T08:51:31.491Z,16.70
2022-11-18T08:53:59.416Z,15.00
2022-11-18T08:56:27.371Z,15.20
2022-11-18T08:58:55.990Z,16.10
2022-11-18T09:01:23.910Z,15.60
2022-11-18T09:03:52.002Z,15.40
2022-11-18T09:06:22.951Z,13.50
2022-11-18T09:08:50.944Z,14.60
2022-11-18T09:11:23.944Z,12.90
2022-11-18T09:16:45.091Z,12.10
2022-11-18T09:22:02.113Z,12.90
2022-11-18T09:24:29.914Z,10.70
2022-11-18T09:26:57.869Z,12.50
2022-11-18T09:29:26.470Z,13.00
2022-11-18T09:31:54.713Z,12.10
2022-11-18T09:34:23.125Z,11.20
2022-11-18T09:36:51.092Z,12.80
2022-11-18T09:39:19.378Z,13.70
2022-11-18T09:41:49.414Z,12.40
2022-11-18T09:44:38.538Z,11.90
2022-11-18T09:47:14.916Z,11.90
2022-11-18T09:49:44.049Z,11.20
2022-11-18T09:52:36.097Z,11.90
2022-11-18T09:55:12.203Z,13.20
2022-11-18T09:57:44.233Z,12.00
2022-11-18T10:00:16.742Z,11.30
2022-11-18T10:03:29.755Z,12.00
2022-11-18T10:08:29.136Z,10.60
2022-11-18T10:11:23.969Z,12.10
2022-11-18T10:14:13.258Z,12.40
2022-11-18T10:17:05.244Z,10.90
2022-11-18T10:19:47.874Z,11.60
2022-11-18T10:22:26.710Z,11.90
2022-11-18T10:24:56.619Z,11.70
2022-11-18T10:27:34.823Z,12.50
2022-11-18T10:30:02.974Z,12.60
2022-11-18T10:32:30.874Z,12.60
2022-11-18T10:34:59.147Z,12.90
2022-11-18T10:38:00.697Z,11.60
2022-11-18T10:40:26.105Z,12.80
2022-11-18T10:42:53.994Z,13.60
2022-11-18T10:45:21.771Z,13.50
2022-11-18T10:48:28.293Z,11.20
2022-11-18T10:50:56.310Z,11.40
2022-11-18T10:53:31.898Z,11.10
2022-11-18T10:56:09.107Z,12.80
2022-11-18T10:58:43.027Z,14.80
2022-11-18T11:01:21.142Z,15.20
2022-11-18T11:04:02.853Z,12.20
2022-11-18T11:06:32.964Z,13.70
2022-11-18T11:09:02.137Z,12.70
2022-11-18T11:11:34.523Z,13.00
2022-11-18T11:14:24.223Z,13.80
2022-11-18T11:21:19.155Z,13.70
2022-11-18T11:23:47.081Z,13.60
2022-11-18T11:29:26.833Z,15.00
2022-11-18T11:32:26.723Z,15.60
2022-11-18T11:35:07.000Z,13.80
2022-11-18T11:37:58.423Z,15.10
2022-11-18T11:40:58.673Z,13.60
2022-11-18T11:43:29.156Z,15.40
2022-11-18T11:46:06.310Z,15.60
2022-11-18T11:49:04.785Z,17.00
2022-11-18T11:51:35.185Z,17.10
2022-11-18T11:54:23.315Z,17.20
2022-11-18T11:56:57.949Z,18.00
2022-11-18T11:59:39.756Z,18.80
2022-11-18T12:02:42.951Z,16.80
2022-11-18T12:05:10.882Z,20.60
2022-11-18T12:08:28.911Z,18.20
2022-11-18T12:10:59.658Z,17.90
2022-11-18T12:13:37.457Z,18.30
2022-11-18T12:16:33.840Z,17.40
2022-11-18T12:19:06.114Z,17.10
2022-11-18T12:24:20.648Z,17.60
2022-11-18T12:26:50.306Z,18.10
2022-11-18T12:29:21.465Z,17.10
2022-11-18T12:31:56.961Z,13.30
2022-11-18T12:34:33.835Z,17.10
2022-11-18T12:37:37.170Z,13.70
2022-11-18T12:40:05.360Z,13.70
2022-11-18T12:42:54.206Z,13.30
2022-11-18T12:45:40.395Z,14.10
2022-11-18T12:48:27.306Z,11.70
2022-11-18T12:50:57.004Z,11.50
2022-11-18T12:53:42.756Z,12.90
2022-11-18T12:56:17.054Z,12.60
2022-11-18T12:58:50.588Z,11.90
2022-11-18T13:01:21.276Z,12.40
2022-11-18T13:03:51.660Z,12.30
2022-11-18T13:06:28.946Z,11.30
2022-11-18T13:09:01.281Z,13.20
2022-11-18T13:14:47.599Z,11.20
2022-11-18T13:17:54.437Z,11.90
2022-11-18T13:20:27.550Z,13.50
2022-11-18T13:23:18.461Z,11.00
2022-11-18T13:25:47.693Z,10.60
2022-11-18T13:28:37.446Z,11.50
2022-11-18T13:31:26.925Z,10.10
2022-11-18T13:33:54.649Z,8.90
2022-11-18T13:36:24.509Z,7.10
2022-11-18T13:39:00.858Z,8.40
2022-11-18T13:41:33.211Z,7.80
2022-11-18T13:46:54.775Z,6.70
2022-11-18T13:49:27.083Z,5.60
2022-11-18T13:51:55.554Z,4.90
2022-11-18T13:54:25.803Z,6.50
2022-11-18T13:56:53.713Z,6.00
2022-11-18T13:59:23.893Z,5.00
2022-11-18T14:01:58.562Z,5.70
2022-11-18T14:04:29.651Z,5.50
2022-11-18T14:07:36.392Z,5.10
2022-11-18T14:10:06.794Z,5.20
2022-11-18T14:12:35.922Z,4.50
2022-11-18T14:15:37.919Z,5.30
2022-11-18T14:18:26.647Z,5.40
2022-11-18T14:20:55.136Z,5.40
2022-11-18T14:23:29.081Z,5.40
2022-11-18T14:25:57.527Z,4.70
2022-11-18T14:28:34.071Z,5.50
2022-11-18T14:31:17.307Z,6.20
2022-11-18T14:34:05.505Z,5.80
2022-11-18T14:36:33.234Z,5.50
2022-11-18T14:41:48.803Z,6.50
2022-11-18T14:44:18.679Z,5.30
2022-11-18T14:46:48.924Z,6.30
2022-11-18T14:49:18.938Z,5.40
2022-11-18T14:51:47.490Z,6.20
2022-11-18T14:54:23.823Z,6.20
2022-11-18T14:56:56.183Z,5.40
2022-11-18T14:59:24.032Z,5.40
2022-11-18T15:01:51.983Z,5.50
2022-11-18T15:04:21.947Z,4.80
2022-11-18T15:06:49.938Z,5.30
2022-11-18T15:09:17.699Z,5.00
2022-11-18T15:11:45.507Z,4.80
2022-11-18T15:14:13.282Z,5.40
2022-11-18T15:16:41.073Z,7.00
2022-11-18T15:19:14.210Z,5.50
2022-11-18T15:21:43.198Z,5.40
2022-11-18T15:24:11.082Z,6.50
2022-11-18T15:26:43.824Z,5.30
2022-11-18T15:29:22.698Z,5.20
2022-11-18T15:31:51.240Z,4.60
2022-11-18T15:34:20.436Z,3.80
2022-11-18T15:36:49.389Z,4.50
2022-11-18T15:39:17.233Z,4.00
2022-11-18T15:41:45.054Z,4.70
2022-11-18T15:44:12.833Z,4.90
2022-11-18T15:46:40.860Z,5.30
2022-11-18T15:49:13.005Z,6.10
2022-11-18T15:51:40.993Z,5.10
2022-11-18T15:54:08.746Z,6.20
2022-11-18T15:56:37.421Z,6.10
2022-11-18T15:59:15.552Z,5.40
2022-11-18T16:01:46.006Z,5.50
2022-11-18T16:04:16.451Z,6.40
2022-11-18T16:06:45.397Z,6.40
2022-11-18T16:09:14.948Z,6.80
2022-11-18T16:12:10.131Z,6.10
2022-11-18T16:14:38.547Z,6.60
2022-11-18T16:17:06.312Z,6.90
2022-11-18T16:19:34.098Z,7.90
2022-11-18T16:22:01.970Z,10.00
2022-11-18T16:24:29.833Z,8.20
2022-11-18T16:26:57.673Z,8.40
2022-11-18T16:29:25.643Z,7.40
2022-11-18T16:31:54.626Z,8.00
2022-11-18T16:34:25.599Z,9.20
2022-11-18T16:36:55.612Z,8.80
2022-11-18T16:39:26.207Z,8.70
2022-11-18T16:41:59.409Z,9.20
2022-11-18T16:44:30.179Z,10.40
2022-11-18T16:46:58.306Z,9.50
2022-11-18T16:49:27.369Z,8.20
2022-11-18T16:51:56.645Z,7.80
2022-11-18T16:54:26.325Z,8.20
2022-11-18T16:56:56.159Z,7.30
2022-11-18T16:59:26.230Z,8.50
2022-11-18T17:01:56.640Z,7.60
2022-11-18T17:04:25.578Z,8.30
2022-11-18T17:06:53.774Z,7.90
2022-11-18T17:09:23.936Z,7.30
2022-11-18T17:11:53.439Z,8.00
2022-11-18T17:14:22.125Z,7.60
2022-11-18T17:16:50.288Z,7.20
2022-11-18T17:19:22.965Z,7.40
2022-11-18T17:21:51.947Z,7.40
2022-11-18T17:24:22.138Z,7.20
2022-11-18T17:26:51.951Z,7.40
2022-11-18T17:29:20.480Z,7.20
2022-11-18T17:31:48.639Z,8.40
2022-11-18T17:34:16.982Z,7.80
2022-11-18T17:36:45.158Z,7.90
2022-11-18T17:39:13.437Z,7.60
2022-11-18T17:41:59.810Z,8.40
2022-11-18T17:44:29.163Z,8.80
2022-11-18T17:46:57.204Z,7.40
2022-11-18T17:49:25.091Z,8.00
2022-11-18T17:51:52.887Z,7.70
2022-11-18T17:54:21.848Z,7.60
2022-11-18T17:56:52.249Z,7.80
2022-11-18T17:59:21.186Z,8.20
2022-11-18T18:01:54.160Z,7.80
2022-11-18T18:04:25.364Z,7.50
2022-11-18T18:06:53.288Z,15.70
2022-11-18T18:09:26.923Z,8.60
2022-11-18T18:11:59.645Z,9.60
2022-11-18T18:14:27.355Z,9.50
2022-11-18T18:16:55.182Z,9.90
2022-11-18T18:19:23.764Z,10.20
2022-11-18T18:21:52.999Z,9.50
2022-11-18T18:24:21.570Z,10.30
2022-11-18T18:26:49.700Z,9.90
2022-11-18T18:29:17.537Z,9.90
2022-11-18T18:31:45.346Z,10.60
2022-11-18T18:34:13.362Z,10.00
2022-11-18T18:36:41.130Z,10.40
2022-11-18T18:39:08.987Z,10.80
2022-11-18T18:41:38.211Z,11.00
2022-11-18T18:44:06.035Z,10.40
2022-11-18T18:46:36.223Z,10.10
2022-11-18T18:49:15.885Z,10.70
2022-11-18T18:51:46.087Z,11.70
2022-11-18T18:54:16.161Z,10.40
2022-11-18T18:56:44.238Z,12.50
2022-11-18T18:59:12.687Z,11.60
2022-11-18T19:01:40.865Z,11.20
2022-11-18T19:04:11.446Z,10.70
2022-11-18T19:07:00.412Z,11.30
2022-11-18T19:09:28.696Z,12.40
2022-11-18T19:12:15.361Z,13.10
2022-11-18T19:14:43.265Z,12.20
2022-11-18T19:17:12.892Z,12.60
2022-11-18T19:20:00.423Z,11.60
2022-11-18T19:22:30.828Z,12.10
2022-11-18T19:24:59.755Z,12.60
2022-11-18T19:27:28.364Z,11.70
2022-11-18T19:29:56.399Z,10.30
2022-11-18T19:32:24.234Z,12.90
2022-11-18T19:34:52.005Z,12.00
2022-11-18T19:37:20.083Z,11.50
2022-11-18T19:39:47.904Z,11.30
2022-11-18T19:42:15.773Z,11.00
2022-11-18T19:44:43.574Z,12.20
2022-11-18T19:47:11.400Z,11.60
2022-11-18T19:49:39.424Z,11.90
2022-11-18T19:52:07.398Z,11.00
2022-11-18T19:54:35.335Z,12.50
2022-11-18T19:57:03.984Z,11.70
2022-11-18T19:59:31.936Z,11.10
2022-11-18T20:02:00.307Z,11.30
2022-11-18T20:04:28.496Z,10.90
2022-11-18T20:06:56.919Z,10.60
2022-11-18T20:09:27.810Z,11.10
2022-11-18T20:11:55.787Z,11.00
2022-11-18T20:14:23.918Z,11.50
2022-11-18T20:16:51.953Z,12.90
2022-11-18T20:19:21.386Z,12.10
2022-11-18T20:21:49.589Z,11.60
2022-11-18T20:24:18.742Z,11.20
2022-11-18T20:26:47.070Z,12.10
2022-11-18T20:29:15.262Z,12.50
2022-11-18T20:31:44.185Z,11.20
2022-11-18T20:34:14.184Z,12.40
2022-11-18T20:36:42.636Z,13.20
2022-11-18T20:39:15.470Z,12.70
2022-11-18T20:42:04.249Z,11.60
2022-11-18T20:44:32.374Z,12.30
2022-11-18T20:47:00.388Z,13.10
2022-11-18T20:49:28.655Z,14.30
2022-11-18T20:51:56.749Z,12.60
2022-11-18T20:54:24.824Z,12.60
2022-11-18T20:56:52.779Z,12.50
2022-11-18T20:59:21.061Z,12.30
2022-11-18T21:01:49.448Z,12.10
2022-11-18T21:04:17.582Z,12.40
2022-11-18T21:06:45.729Z,13.70
2022-11-18T21:09:14.321Z,12.90
2022-11-18T21:11:42.082Z,12.30
2022-11-18T21:14:23.815Z,11.70
2022-11-18T21:16:55.284Z,10.80
2022-11-18T21:19:23.748Z,12.70
2022-11-18T21:21:54.422Z,12.70
2022-11-18T21:24:28.884Z,13.60
2022-11-18T21:26:58.011Z,12.50
2022-11-18T21:29:28.565Z,13.00
2022-11-18T21:31:57.986Z,13.40
2022-11-18T21:34:25.820Z,12.40
2022-11-18T21:36:55.292Z,12.90
2022-11-18T21:39:24.358Z,12.70
2022-11-18T21:41:56.160Z,12.00
2022-11-18T21:44:26.108Z,10.50
2022-11-18T21:46:54.037Z,11.00
2022-11-18T21:49:22.605Z,10.70
2022-11-18T21:51:50.777Z,8.90
2022-11-18T21:54:18.661Z,10.50
2022-11-18T21:56:46.526Z,9.90
2022-11-18T21:59:14.336Z,9.50
2022-11-18T22:01:42.109Z,8.70
2022-11-18T22:04:29.870Z,7.80
2022-11-18T22:07:00.862Z,7.50
2022-11-18T22:09:34.673Z,8.50
2022-11-18T22:12:06.174Z,8.30
2022-11-18T22:14:33.966Z,8.10
2022-11-18T22:17:02.161Z,7.40
2022-11-18T22:19:30.233Z,7.80
2022-11-18T22:21:58.339Z,7.70
2022-11-18T22:24:26.721Z,6.50
2022-11-18T22:26:54.596Z,6.90
2022-11-18T22:29:24.257Z,6.40
2022-11-18T22:31:53.242Z,6.60
2022-11-18T22:34:20.988Z,6.70
2022-11-18T22:36:48.829Z,7.50
2022-11-18T22:39:17.392Z,7.20
2022-11-18T22:42:04.810Z,6.40
2022-11-18T22:44:32.708Z,6.60
2022-11-18T22:47:00.517Z,6.10
2022-11-18T22:49:28.480Z,6.70
2022-11-18T22:51:56.539Z,6.40
2022-11-18T22:54:38.953Z,5.90
2022-11-18T22:57:07.997Z,7.30
2022-11-18T22:59:35.959Z,6.20
2022-11-18T23:02:04.167Z,7.00
2022-11-18T23:04:32.224Z,6.50
2022-11-18T23:07:00.158Z,6.40
2022-11-18T23:09:28.299Z,6.80
2022-11-18T23:12:14.739Z,6.10
2022-11-18T23:14:42.497Z,6.90
2022-11-18T23:17:10.341Z,7.30
2022-11-18T23:19:42.878Z,6.40
2022-11-18T23:22:11.564Z,6.50
2022-11-18T23:24:39.457Z,7.00
2022-11-18T23:27:07.304Z,7.00
2022-11-18T23:29:35.023Z,6.20
2022-11-18T23:32:03.305Z,6.80
2022-11-18T23:34:31.069Z,6.90
2022-11-18T23:36:58.830Z,6.50
2022-11-18T23:39:26.857Z,6.60
2022-11-18T23:41:54.821Z,6.60
2022-11-18T23:44:42.490Z,6.60
2022-11-18T23:47:10.253Z,6.60
2022-11-18T23:49:38.063Z,7.30
2022-11-18T23:52:06.087Z,7.10
2022-11-18T23:54:34.517Z,7.80
2022-11-18T23:57:05.085Z,7.10
2022-11-18T23:59:33.278Z,7.60
